Time;durP1;ratioP1;P1;durP2;ratioP2;P2;SDS_P1;SDS_P2;PMS_P1;PMS_P2;Temp;Humidity;BMP_temperature;BMP_pressure;BME280_temperature;BME280_humidity;BME280_pressure;Samples;Min_cycle;Max_cycle;Signal;HPM_P1;HPM_P2
2023/04/08 00:01:39;;;;;;;37.90;23.65;;;21.70;55.30;;;;;;4879874;29;20041;-63
2023/04/08 00:04:08;;;;;;;42.95;26.13;;;21.60;55.20;;;;;;4880247;29;20037;-65
2023/04/08 00:06:34;;;;;;;39.88;23.75;;;21.60;55.30;;;;;;4880787;29;20031;-65
2023/04/08 00:09:00;;;;;;;37.05;24.08;;;21.60;55.30;;;;;;4881338;29;20033;-64
2023/04/08 00:11:26;;;;;;;37.95;23.80;;;21.50;55.40;;;;;;4880250;29;20033;-64
2023/04/08 00:13:52;;;;;;;41.63;25.00;;;21.60;55.40;;;;;;4881088;29;20025;-64
2023/04/08 00:16:18;;;;;;;40.13;23.67;;;21.50;55.40;;;;;;4858426;29;20553;-64
2023/04/08 00:18:44;;;;;;;40.63;24.20;;;21.40;55.40;;;;;;4862823;29;20037;-65
2023/04/08 00:21:10;;;;;;;40.42;22.80;;;21.40;55.40;;;;;;4880444;29;20048;-65
2023/04/08 00:23:36;;;;;;;35.47;22.85;;;21.40;55.50;;;;;;4879737;29;20417;-64
2023/04/08 00:26:02;;;;;;;36.97;23.15;;;21.40;55.60;;;;;;4881038;29;20093;-64
2023/04/08 00:28:28;;;;;;;39.80;22.95;;;21.50;55.50;;;;;;4872956;29;20049;-64
2023/04/08 00:30:54;;;;;;;36.28;20.80;;;21.50;55.50;;;;;;4873657;29;20049;-64
2023/04/08 00:33:20;;;;;;;40.38;21.27;;;21.40;55.30;;;;;;4879767;29;20033;-65
2023/04/08 00:35:47;;;;;;;34.40;21.17;;;21.50;55.40;;;;;;4879996;29;20049;-64
2023/04/08 00:38:13;;;;;;;33.30;21.48;;;21.50;55.30;;;;;;4880219;29;20373;-65
2023/04/08 00:40:39;;;;;;;34.67;20.55;;;21.50;55.30;;;;;;4879670;29;20104;-64
2023/04/08 00:43:05;;;;;;;36.42;21.88;;;21.50;55.30;;;;;;4877719;29;20048;-65
2023/04/08 00:45:32;;;;;;;35.00;22.15;;;21.40;55.10;;;;;;4880082;29;20115;-64
2023/04/08 00:47:59;;;;;;;35.63;21.63;;;21.30;55.10;;;;;;4879525;29;20033;-64
2023/04/08 00:50:25;;;;;;;35.90;21.25;;;21.40;55.10;;;;;;4862459;29;20052;-64
2023/04/08 00:52:51;;;;;;;34.92;20.67;;;21.30;55.00;;;;;;4863748;29;20069;-64
2023/04/08 00:55:17;;;;;;;32.30;20.55;;;21.20;55.00;;;;;;4879623;29;20512;-64
2023/04/08 00:57:43;;;;;;;33.42;20.23;;;21.30;55.10;;;;;;4879197;29;20064;-65
2023/04/08 01:00:10;;;;;;;33.97;21.25;;;21.20;55.10;;;;;;4861437;29;20033;-64
2023/04/08 01:03:05;;;;;;;34.53;20.70;;;21.20;55.10;;;;;;4850205;29;20117;-63
2023/04/08 01:05:42;;;;;;;37.42;21.55;;;21.20;55.10;;;;;;4803790;29;20142;-64
2023/04/08 01:08:10;;;;;;;39.17;22.60;;;21.20;55.20;;;;;;4804301;29;20047;-62
2023/04/08 01:10:41;;;;;;;36.92;22.15;;;21.10;55.30;;;;;;4803794;29;20089;-64
2023/04/08 01:13:11;;;;;;;32.55;20.90;;;21.00;55.10;;;;;;4803982;29;20046;-63
2023/04/08 01:15:40;;;;;;;26.83;18.88;;;21.10;55.30;;;;;;4805187;29;20065;-64
2023/04/08 01:18:09;;;;;;;26.08;19.15;;;20.90;55.20;;;;;;4813105;29;20042;-63
2023/04/08 01:20:36;;;;;;;25.23;17.77;;;21.10;55.30;;;;;;4803703;29;20606;-64
2023/04/08 01:23:07;;;;;;;24.65;19.35;;;21.10;55.30;;;;;;4803598;29;20114;-63
2023/04/08 01:25:37;;;;;;;24.50;19.17;;;21.10;55.20;;;;;;4809100;29;20109;-64
2023/04/08 01:28:10;;;;;;;24.58;18.23;;;21.20;55.10;;;;;;4806238;29;20066;-63
2023/04/08 01:30:41;;;;;;;23.42;18.00;;;21.10;55.00;;;;;;4804310;29;20034;-65
2023/04/08 01:33:11;;;;;;;24.92;17.88;;;21.00;54.90;;;;;;4792197;29;20046;-65
2023/04/08 01:35:37;;;;;;;23.52;18.65;;;21.10;54.90;;;;;;4816088;29;20104;-65
2023/04/08 01:38:06;;;;;;;26.00;18.92;;;21.00;54.70;;;;;;4803884;29;20122;-64
2023/04/08 01:40:34;;;;;;;25.30;18.42;;;21.10;54.80;;;;;;4814545;29;20050;-64
2023/04/08 01:43:04;;;;;;;26.00;19.65;;;21.10;54.70;;;;;;4863806;29;20521;-64
2023/04/08 01:45:30;;;;;;;26.40;18.83;;;21.10;54.70;;;;;;4877955;29;20041;-65
2023/04/08 01:47:59;;;;;;;24.02;19.08;;;21.20;54.70;;;;;;4878608;29;20072;-65
2023/04/08 01:50:26;;;;;;;25.65;18.77;;;21.10;54.70;;;;;;4879117;29;20482;-65
2023/04/08 01:52:54;;;;;;;23.25;18.73;;;21.00;54.60;;;;;;4895309;29;20048;-65
2023/04/08 01:55:20;;;;;;;28.15;19.63;;;20.90;54.80;;;;;;4894765;29;20583;-64
2023/04/08 01:57:51;;;;;;;25.08;19.40;;;21.00;54.80;;;;;;4893365;29;20052;-64
2023/04/08 02:00:23;;;;;;;25.35;18.38;;;20.80;54.70;;;;;;4892915;29;20049;-63
2023/04/08 02:02:52;;;;;;;25.73;19.73;;;20.90;54.80;;;;;;4894037;29;20044;-65
2023/04/08 02:05:19;;;;;;;25.73;19.30;;;20.90;54.80;;;;;;4860987;29;20140;-64
2023/04/08 02:07:47;;;;;;;27.98;18.60;;;20.90;54.80;;;;;;4892484;29;20043;-65
2023/04/08 02:10:14;;;;;;;25.75;18.92;;;20.70;54.70;;;;;;4895579;29;20481;-65
2023/04/08 02:12:41;;;;;;;27.85;18.77;;;20.80;54.70;;;;;;4894287;29;20039;-64
2023/04/08 02:15:11;;;;;;;25.92;19.55;;;20.80;54.80;;;;;;4893776;29;20040;-63
2023/04/08 02:17:59;;;;;;;29.27;20.40;;;20.80;54.70;;;;;;4878374;29;20076;-64
2023/04/08 02:20:33;;;;;;;25.80;18.73;;;20.80;54.60;;;;;;4894808;29;20103;-65
2023/04/08 02:23:22;;;;;;;26.75;20.10;;;20.80;54.50;;;;;;4893935;29;20154;-64
2023/04/08 02:25:49;;;;;;;25.90;19.27;;;20.80;54.40;;;;;;4878924;29;20045;-64
2023/04/08 02:28:18;;;;;;;28.35;20.30;;;20.80;54.30;;;;;;4873491;29;20450;-64
2023/04/08 02:30:50;;;;;;;26.38;19.95;;;20.90;54.20;;;;;;4875563;29;20079;-64
2023/04/08 02:33:19;;;;;;;29.35;20.20;;;20.90;54.20;;;;;;4876608;29;20037;-63
2023/04/08 02:35:48;;;;;;;28.25;20.42;;;21.00;54.30;;;;;;4878935;29;20060;-64
2023/04/08 02:38:14;;;;;;;29.85;20.58;;;20.90;54.20;;;;;;4876402;29;20537;-64
2023/04/08 02:40:41;;;;;;;30.17;21.75;;;20.80;54.10;;;;;;4871036;29;20048;-63
2023/04/08 02:43:07;;;;;;;26.83;20.48;;;20.80;54.10;;;;;;4876516;29;20041;-64
2023/04/08 02:45:43;;;;;;;28.73;20.77;;;20.80;54.10;;;;;;4876136;29;20118;-64
2023/04/08 02:48:09;;;;;;;29.70;21.08;;;20.70;54.10;;;;;;4877128;29;20100;-65
2023/04/08 02:50:36;;;;;;;30.17;19.92;;;20.80;54.20;;;;;;4876732;29;20120;-62
2023/04/08 02:53:02;;;;;;;28.27;20.27;;;20.70;54.20;;;;;;4876995;29;20041;-64
2023/04/08 02:55:30;;;;;;;28.08;20.27;;;20.70;54.20;;;;;;4876852;29;20045;-64
2023/04/08 02:57:56;;;;;;;28.80;20.70;;;20.70;54.20;;;;;;4874608;29;20079;-65
2023/04/08 03:00:22;;;;;;;30.15;20.35;;;20.70;54.20;;;;;;4875784;29;20433;-64
2023/04/08 03:02:48;;;;;;;34.30;21.10;;;20.60;54.10;;;;;;4821490;29;20566;-65
2023/04/08 03:05:15;;;;;;;31.92;21.08;;;20.60;54.10;;;;;;4839926;29;20058;-64
2023/04/08 03:07:41;;;;;;;28.27;21.42;;;20.60;54.10;;;;;;4857210;29;20053;-64
2023/04/08 03:10:08;;;;;;;28.88;20.65;;;20.60;54.00;;;;;;4846447;29;20029;-64
2023/04/08 03:12:34;;;;;;;25.27;19.23;;;20.60;53.90;;;;;;4836937;29;20077;-64
2023/04/08 03:15:00;;;;;;;29.17;20.80;;;20.70;54.00;;;;;;4833995;29;20085;-64
2023/04/08 03:17:26;;;;;;;24.75;18.60;;;20.60;53.70;;;;;;4838434;29;20490;-65
2023/04/08 03:19:52;;;;;;;29.45;19.73;;;20.70;53.80;;;;;;4836973;29;20046;-63
2023/04/08 03:22:18;;;;;;;26.70;19.02;;;20.60;53.60;;;;;;4838172;29;20075;-65
2023/04/08 03:24:44;;;;;;;27.17;18.25;;;20.70;53.70;;;;;;4836456;29;20042;-64
2023/04/08 03:27:11;;;;;;;25.23;18.75;;;20.60;53.40;;;;;;4836982;29;20069;-65
2023/04/08 03:29:37;;;;;;;34.13;21.83;;;20.80;53.40;;;;;;4821105;29;20133;-63
2023/04/08 03:32:03;;;;;;;32.78;21.30;;;20.80;53.40;;;;;;4836337;29;20060;-64
2023/04/08 03:34:30;;;;;;;30.33;21.83;;;20.70;53.30;;;;;;4866819;29;20105;-64
2023/04/08 03:36:56;;;;;;;31.92;21.65;;;20.70;53.30;;;;;;4862817;29;20500;-64
2023/04/08 03:39:22;;;;;;;32.70;21.45;;;20.70;53.30;;;;;;4845138;29;20044;-63
2023/04/08 03:41:48;;;;;;;34.60;21.30;;;20.60;53.30;;;;;;4876868;29;20116;-64
2023/04/08 03:44:14;;;;;;;32.63;22.80;;;20.70;53.40;;;;;;4875994;29;20149;-64
2023/04/08 03:46:40;;;;;;;34.53;21.95;;;20.60;53.30;;;;;;4875764;29;20049;-64
2023/04/08 03:49:06;;;;;;;30.50;21.45;;;20.70;53.40;;;;;;4876833;29;20033;-65
2023/04/08 03:51:32;;;;;;;28.13;20.38;;;20.50;53.30;;;;;;4865305;29;20033;-64
2023/04/08 03:53:58;;;;;;;30.48;20.50;;;20.60;53.30;;;;;;4858752;29;20025;-64
2023/04/08 03:56:24;;;;;;;31.50;21.13;;;20.50;53.30;;;;;;4860258;29;20675;-62
2023/04/08 03:58:50;;;;;;;28.08;19.70;;;20.50;53.30;;;;;;4873320;29;20049;-64
2023/04/08 04:01:16;;;;;;;33.88;20.35;;;20.50;53.20;;;;;;4872858;29;20422;-65
2023/04/08 04:03:42;;;;;;;30.52;20.73;;;20.60;53.20;;;;;;4875381;29;20041;-64
2023/04/08 04:06:09;;;;;;;30.58;19.75;;;20.50;53.10;;;;;;4877412;29;20041;-64
2023/04/08 04:08:35;;;;;;;27.80;19.33;;;20.60;53.10;;;;;;4860570;29;20382;-64
2023/04/08 04:11:01;;;;;;;32.67;21.25;;;20.60;53.00;;;;;;4863148;29;20144;-64
2023/04/08 04:13:27;;;;;;;32.03;20.65;;;20.50;52.90;;;;;;4865234;29;20029;-65
2023/04/08 04:15:52;;;;;;;34.13;21.80;;;20.60;52.80;;;;;;4876705;29;20035;-64
2023/04/08 04:18:18;;;;;;;33.20;20.70;;;20.60;52.80;;;;;;4876739;29;20048;-64
2023/04/08 04:20:44;;;;;;;30.52;19.88;;;20.70;52.80;;;;;;4876818;29;20032;-64
2023/04/08 04:23:11;;;;;;;32.10;20.55;;;20.60;52.70;;;;;;4873539;29;20034;-65
2023/04/08 04:25:40;;;;;;;30.02;20.98;;;20.60;52.60;;;;;;4858547;29;20101;-64
2023/04/08 04:28:07;;;;;;;27.33;19.67;;;20.60;52.50;;;;;;4867948;29;20093;-64
2023/04/08 04:30:36;;;;;;;26.30;20.02;;;20.60;52.50;;;;;;4876265;29;20116;-65
2023/04/08 04:33:02;;;;;;;26.98;18.52;;;20.70;52.60;;;;;;4876500;29;20037;-64
2023/04/08 04:35:28;;;;;;;31.83;22.27;;;20.60;52.50;;;;;;4865329;29;20092;-64
2023/04/08 04:37:55;;;;;;;29.73;21.48;;;20.50;52.60;;;;;;4877043;29;20068;-63
2023/04/08 04:40:21;;;;;;;30.75;21.73;;;20.50;52.60;;;;;;4868156;29;20086;-65
2023/04/08 04:42:47;;;;;;;33.47;20.75;;;20.60;52.60;;;;;;4873786;29;20033;-64
2023/04/08 04:45:13;;;;;;;33.90;22.67;;;20.50;52.70;;;;;;4875787;29;20040;-64
2023/04/08 04:47:39;;;;;;;31.85;22.08;;;20.50;52.60;;;;;;4880298;29;20037;-65
2023/04/08 04:50:06;;;;;;;33.40;22.73;;;20.50;52.60;;;;;;4879473;29;20029;-65
2023/04/08 04:52:32;;;;;;;33.85;23.50;;;20.40;52.60;;;;;;4879899;29;20064;-64
2023/04/08 04:54:58;;;;;;;40.00;25.27;;;20.50;52.60;;;;;;4878021;29;20037;-64
2023/04/08 04:57:24;;;;;;;44.45;27.30;;;20.50;52.60;;;;;;4879361;29;20048;-64
2023/04/08 04:59:50;;;;;;;40.25;27.42;;;20.50;52.60;;;;;;4877961;29;20104;-65
2023/04/08 05:02:16;;;;;;;47.50;29.55;;;20.50;52.50;;;;;;4878854;29;20124;-63
2023/04/08 05:04:42;;;;;;;39.85;26.60;;;20.50;52.40;;;;;;4879011;29;20048;-65
2023/04/08 05:07:08;;;;;;;36.50;26.65;;;20.50;52.30;;;;;;4879994;29;20088;-64
2023/04/08 05:09:34;;;;;;;45.08;28.33;;;20.50;52.20;;;;;;4879863;29;20039;-64
2023/04/08 05:12:00;;;;;;;40.65;25.98;;;20.60;52.10;;;;;;4878240;29;20029;-64
2023/04/08 05:14:29;;;;;;;36.80;25.08;;;20.50;52.00;;;;;;4876853;29;20052;-63
2023/04/08 05:16:56;;;;;;;33.42;24.88;;;20.60;52.00;;;;;;4879229;29;20041;-65
2023/04/08 05:19:22;;;;;;;38.28;25.23;;;20.70;52.30;;;;;;4878625;29;20045;-64
2023/04/08 05:21:48;;;;;;;30.48;21.67;;;20.60;52.60;;;;;;4879558;29;20094;-65
2023/04/08 05:24:14;;;;;;;37.47;23.70;;;20.60;52.60;;;;;;4862194;29;20037;-65
2023/04/08 05:26:40;;;;;;;2.50;2.30;;;20.70;52.30;;;;;;4872937;29;20036;-65
2023/04/08 05:29:06;;;;;;;2.72;2.30;;;20.90;55.20;;;;;;4861069;29;20676;-65
2023/04/08 05:31:32;;;;;;;2.55;2.35;;;21.10;55.40;;;;;;4876703;29;20699;-65
2023/04/08 05:33:58;;;;;;;1.80;1.70;;;21.40;55.00;;;;;;4879313;29;20787;-65
2023/04/08 05:36:25;;;;;;;4.75;2.90;;;21.70;54.40;;;;;;4879256;29;20462;-63
2023/04/08 05:38:51;;;;;;;3.17;2.70;;;22.00;53.70;;;;;;4879327;29;20098;-65
2023/04/08 05:41:17;;;;;;;6.90;4.13;;;22.10;54.70;;;;;;4879101;29;20037;-64
2023/04/08 05:43:43;;;;;;;16.67;8.98;;;22.20;55.50;;;;;;4879149;29;20037;-65
2023/04/08 05:46:10;;;;;;;3.60;2.85;;;22.20;55.90;;;;;;4879168;29;20764;-65
2023/04/08 05:48:36;;;;;;;4.07;3.63;;;22.30;55.30;;;;;;4878653;29;20041;-65
2023/04/08 05:51:02;;;;;;;10.65;6.57;;;22.50;52.90;;;;;;4878634;29;20096;-64
2023/04/08 05:53:28;;;;;;;22.52;16.65;;;22.50;51.90;;;;;;4878522;29;20049;-64
2023/04/08 05:55:54;;;;;;;33.42;25.30;;;22.60;51.10;;;;;;4878682;29;20033;-64
2023/04/08 05:58:20;;;;;;;35.42;24.88;;;22.60;46.20;;;;;;4878680;29;20041;-65
2023/04/08 06:00:46;;;;;;;23.55;20.10;;;22.40;45.00;;;;;;4878689;29;20037;-65
2023/04/08 06:03:12;;;;;;;29.98;19.65;;;22.50;44.90;;;;;;4878693;29;20048;-64
2023/04/08 06:05:38;;;;;;;28.35;20.40;;;22.40;52.40;;;;;;4866138;29;20040;-65
2023/04/08 06:08:04;;;;;;;25.83;19.02;;;22.60;54.20;;;;;;4860293;29;20049;-65
2023/04/08 06:10:30;;;;;;;20.05;14.30;;;22.60;54.10;;;;;;4860027;29;20041;-66
2023/04/08 06:12:56;;;;;;;17.95;12.15;;;22.60;54.00;;;;;;4876248;29;20060;-65
2023/04/08 06:15:22;;;;;;;19.70;13.35;;;22.70;53.70;;;;;;4876517;29;20045;-63
2023/04/08 06:17:48;;;;;;;26.90;17.40;;;22.60;54.00;;;;;;4878418;29;20043;-66
2023/04/08 06:20:14;;;;;;;22.65;15.77;;;22.60;55.40;;;;;;4878293;29;20033;-65
2023/04/08 06:22:40;;;;;;;23.58;16.70;;;22.70;53.90;;;;;;4878482;29;20554;-64
2023/04/08 06:25:07;;;;;;;25.92;14.38;;;22.70;53.10;;;;;;4878228;29;20041;-66
2023/04/08 06:27:33;;;;;;;22.92;15.65;;;22.80;54.00;;;;;;4878289;29;20033;-65
2023/04/08 06:29:59;;;;;;;22.38;13.23;;;22.90;55.40;;;;;;4861600;29;20085;-65
2023/04/08 06:32:25;;;;;;;29.48;21.52;;;22.80;53.60;;;;;;4877934;29;20060;-65
2023/04/08 06:34:51;;;;;;;32.25;21.60;;;22.90;52.90;;;;;;4878108;29;20053;-65
2023/04/08 06:37:17;;;;;;;33.78;23.02;;;22.80;52.50;;;;;;4878148;29;20501;-65
2023/04/08 06:39:43;;;;;;;27.58;21.35;;;22.60;52.80;;;;;;4877903;29;20160;-65
2023/04/08 06:42:09;;;;;;;27.83;20.25;;;22.40;53.50;;;;;;4877879;29;20066;-64
2023/04/08 06:44:56;;;;;;;31.40;21.58;;;22.30;54.10;;;;;;4876675;29;20037;-65
2023/04/08 06:47:23;;;;;;;27.83;20.85;;;22.00;54.50;;;;;;4877866;29;20089;-64
2023/04/08 06:49:49;;;;;;;31.98;21.73;;;22.00;55.10;;;;;;4859145;29;20128;-65
2023/04/08 06:52:15;;;;;;;30.75;22.00;;;21.90;55.50;;;;;;4870010;29;20124;-65
2023/04/08 06:54:42;;;;;;;28.25;20.65;;;21.80;55.80;;;;;;4878000;29;20041;-65
2023/04/08 06:57:08;;;;;;;29.30;20.73;;;21.80;56.30;;;;;;4877760;29;20037;-65
2023/04/08 06:59:34;;;;;;;27.02;20.77;;;21.70;56.50;;;;;;4876681;29;20083;-65
2023/04/08 07:02:00;;;;;;;30.02;20.05;;;21.70;56.70;;;;;;4877071;29;20065;-66
2023/04/08 07:04:26;;;;;;;29.88;20.85;;;21.60;57.50;;;;;;4877618;29;20048;-64
2023/04/08 07:06:52;;;;;;;29.77;19.30;;;21.50;58.20;;;;;;4877981;29;20054;-65
2023/04/08 07:09:18;;;;;;;30.90;19.08;;;21.60;58.40;;;;;;4877445;29;20036;-65
2023/04/08 07:11:44;;;;;;;28.92;17.83;;;21.60;58.30;;;;;;4877529;29;20037;-65
2023/04/08 07:14:11;;;;;;;22.70;16.60;;;21.70;58.40;;;;;;4877533;29;20041;-66
2023/04/08 07:16:37;;;;;;;24.08;18.25;;;21.80;58.40;;;;;;4877873;29;20187;-65
2023/04/08 07:19:03;;;;;;;25.67;18.30;;;21.90;58.00;;;;;;4877749;29;20108;-64
2023/04/08 07:21:30;;;;;;;25.95;18.30;;;22.00;57.80;;;;;;4859708;29;20053;-66
2023/04/08 07:23:56;;;;;;;26.98;19.02;;;22.00;58.10;;;;;;4877336;29;20120;-65
2023/04/08 07:26:22;;;;;;;24.70;17.75;;;22.00;58.40;;;;;;4875128;29;20136;-66
2023/04/08 07:28:48;;;;;;;28.63;19.10;;;22.00;58.50;;;;;;4877453;29;20373;-65
2023/04/08 07:31:16;;;;;;;26.00;18.92;;;21.90;58.40;;;;;;4860813;29;20040;-67
2023/04/08 07:33:42;;;;;;;28.10;20.63;;;22.00;58.40;;;;;;4876128;29;20089;-68
2023/04/08 07:36:10;;;;;;;31.08;21.88;;;22.00;58.50;;;;;;4872257;29;20045;-66
2023/04/08 07:38:37;;;;;;;26.38;20.05;;;21.90;58.60;;;;;;4876813;29;20121;-67
2023/04/08 07:41:03;;;;;;;27.67;19.25;;;21.90;59.00;;;;;;4877384;29;20037;-66
2023/04/08 07:43:38;;;;;;;36.15;22.17;;;22.00;59.20;;;;;;4877318;29;20037;-65
2023/04/08 07:46:06;;;;;;;30.60;21.08;;;22.10;58.90;;;;;;4877098;29;20068;-65
2023/04/08 07:48:33;;;;;;;30.60;21.33;;;22.10;58.80;;;;;;4877039;29;20037;-65
2023/04/08 07:51:09;;;;;;;28.63;21.40;;;22.10;59.00;;;;;;4877127;29;20072;-65
2023/04/08 07:53:35;;;;;;;30.13;20.13;;;22.10;59.10;;;;;;4877284;29;20029;-64
2023/04/08 07:56:04;;;;;;;32.38;21.63;;;22.10;58.90;;;;;;4891474;29;20097;-65
2023/04/08 07:58:31;;;;;;;29.95;20.67;;;22.20;58.90;;;;;;4877366;29;20125;-66
2023/04/08 08:00:57;;;;;;;31.02;21.83;;;22.20;58.80;;;;;;4875670;29;20089;-65
2023/04/08 08:03:23;;;;;;;32.40;21.42;;;22.10;58.80;;;;;;4877279;29;20068;-66
2023/04/08 08:05:49;;;;;;;32.28;21.90;;;22.20;58.90;;;;;;4876900;29;20537;-66
2023/04/08 08:08:15;;;;;;;30.30;20.63;;;22.20;58.80;;;;;;4876142;29;20037;-65
2023/04/08 08:10:41;;;;;;;31.08;21.80;;;22.20;59.00;;;;;;4877028;29;20076;-65
2023/04/08 08:13:07;;;;;;;36.88;23.33;;;22.30;59.10;;;;;;4870348;29;20029;-66
2023/04/08 08:15:33;;;;;;;35.15;22.35;;;22.30;59.40;;;;;;4880633;29;20583;-66
2023/04/08 08:17:59;;;;;;;34.17;21.60;;;22.30;59.40;;;;;;4879968;29;20081;-66
2023/04/08 08:20:26;;;;;;;33.20;21.42;;;22.40;59.40;;;;;;4880381;29;20049;-65
2023/04/08 08:22:52;;;;;;;34.25;21.80;;;22.50;59.40;;;;;;4862010;29;20046;-65
2023/04/08 08:25:18;;;;;;;29.75;21.58;;;22.60;59.00;;;;;;4862025;29;20042;-65
2023/04/08 08:27:44;;;;;;;36.38;24.85;;;22.70;58.90;;;;;;4844321;29;20077;-65
2023/04/08 08:30:10;;;;;;;34.70;24.25;;;22.70;58.60;;;;;;4861903;29;20113;-64
2023/04/08 08:32:36;;;;;;;33.35;23.60;;;22.80;58.70;;;;;;4861752;29;20033;-65
2023/04/08 08:35:03;;;;;;;34.67;23.10;;;22.60;58.80;;;;;;4879378;29;20132;-65
2023/04/08 08:37:29;;;;;;;35.38;22.45;;;22.70;59.10;;;;;;4880455;29;20104;-62
2023/04/08 08:39:55;;;;;;;31.02;21.40;;;22.60;59.00;;;;;;4879903;29;20045;-65
2023/04/08 08:42:22;;;;;;;26.38;17.80;;;22.70;58.90;;;;;;4880430;29;20033;-64
2023/04/08 08:44:48;;;;;;;29.23;20.33;;;22.70;58.60;;;;;;4880290;29;20036;-64
2023/04/08 08:47:15;;;;;;;33.45;23.15;;;22.90;58.20;;;;;;4880117;29;20116;-63
2023/04/08 08:49:42;;;;;;;27.08;19.75;;;22.80;57.80;;;;;;4877574;29;20045;-64
2023/04/08 08:52:08;;;;;;;32.05;22.00;;;22.90;57.90;;;;;;4874529;29;20496;-64
2023/04/08 08:54:34;;;;;;;33.20;23.05;;;23.00;57.70;;;;;;4877089;29;20497;-64
2023/04/08 08:57:00;;;;;;;34.03;23.88;;;22.80;57.70;;;;;;4877695;29;20048;-65
2023/04/08 08:59:27;;;;;;;32.67;23.02;;;22.80;58.00;;;;;;4877416;29;20061;-64
2023/04/08 09:01:52;;;;;;;32.50;23.23;;;22.70;58.30;;;;;;4877325;29;20033;-63
2023/04/08 09:04:21;;;;;;;34.22;24.02;;;22.70;58.70;;;;;;4877600;29;20137;-63
2023/04/08 09:07:12;;;;;;;31.30;24.42;;;22.60;58.60;;;;;;4877411;29;20132;-65
2023/04/08 09:09:50;;;;;;;36.35;24.05;;;22.50;58.80;;;;;;4877473;29;20146;-64
2023/04/08 09:12:16;;;;;;;31.27;23.38;;;22.40;58.90;;;;;;4877023;29;20032;-64
2023/04/08 09:14:42;;;;;;;35.67;24.65;;;22.30;58.90;;;;;;4846086;29;20152;-64
2023/04/08 09:17:08;;;;;;;38.03;24.20;;;22.30;59.10;;;;;;4861764;29;20045;-64
2023/04/08 09:19:34;;;;;;;34.25;24.25;;;22.20;59.20;;;;;;4877132;29;20049;-65
2023/04/08 09:22:08;;;;;;;34.60;24.02;;;22.30;59.40;;;;;;4879307;29;20406;-64
2023/04/08 09:24:36;;;;;;;36.30;24.20;;;22.20;59.20;;;;;;4845413;29;20045;-65
2023/04/08 09:27:05;;;;;;;33.45;23.67;;;22.20;59.20;;;;;;4879103;29;20041;-63
2023/04/08 09:29:32;;;;;;;33.03;22.80;;;22.30;59.30;;;;;;4879125;29;20064;-64
2023/04/08 09:32:00;;;;;;;34.38;23.10;;;22.40;59.30;;;;;;4878834;29;20035;-64
2023/04/08 09:34:28;;;;;;;32.47;22.30;;;22.40;59.00;;;;;;4878435;29;20045;-64
2023/04/08 09:36:55;;;;;;;32.65;23.45;;;22.40;58.70;;;;;;4878874;29;20549;-65
2023/04/08 09:39:21;;;;;;;32.20;23.38;;;22.50;58.80;;;;;;4878958;29;20041;-63
2023/04/08 09:41:49;;;;;;;34.70;23.48;;;22.70;58.80;;;;;;4878648;29;20041;-65
2023/04/08 09:44:17;;;;;;;35.67;23.25;;;22.60;58.70;;;;;;4878737;29;20405;-64
2023/04/08 09:46:49;;;;;;;37.78;24.80;;;22.60;58.60;;;;;;4878832;29;20069;-64
2023/04/08 09:49:26;;;;;;;37.35;23.23;;;22.70;58.90;;;;;;4879050;29;20116;-63
2023/04/08 09:52:18;;;;;;;35.90;24.77;;;22.60;58.80;;;;;;4879033;29;20048;-65
2023/04/08 09:55:03;;;;;;;32.17;23.35;;;22.50;58.60;;;;;;4878904;29;20061;-65
2023/04/08 09:57:53;;;;;;;37.60;25.20;;;22.50;58.70;;;;;;4878796;29;20049;-64
2023/04/08 10:00:28;;;;;;;37.40;23.88;;;22.50;58.80;;;;;;4878821;29;20048;-65
2023/04/08 10:03:05;;;;;;;31.95;24.50;;;22.60;58.80;;;;;;4878844;29;20116;-64
2023/04/08 10:05:36;;;;;;;35.10;23.50;;;22.40;58.90;;;;;;4878918;29;20123;-64
2023/04/08 10:08:03;;;;;;;37.03;23.90;;;22.40;58.90;;;;;;4877667;29;20041;-64
2023/04/08 10:10:30;;;;;;;38.75;25.00;;;22.50;59.10;;;;;;4878761;29;20150;-64
2023/04/08 10:12:57;;;;;;;34.53;24.48;;;22.40;59.10;;;;;;4878277;29;20037;-63
2023/04/08 10:15:29;;;;;;;37.40;24.42;;;22.20;58.90;;;;;;4878781;29;20039;-65
2023/04/08 10:18:19;;;;;;;34.22;22.70;;;22.30;59.10;;;;;;4878650;29;20073;-64
2023/04/08 10:20:46;;;;;;;34.65;23.17;;;22.40;59.40;;;;;;4878397;29;20127;-65
2023/04/08 10:23:17;;;;;;;30.65;21.58;;;22.30;59.40;;;;;;4878380;29;20029;-64
2023/04/08 10:25:48;;;;;;;36.47;23.88;;;22.50;59.00;;;;;;4878591;29;20489;-65
2023/04/08 10:28:15;;;;;;;32.83;22.77;;;22.50;58.80;;;;;;4860974;29;20029;-64
2023/04/08 10:30:44;;;;;;;34.15;21.20;;;22.60;58.60;;;;;;4878530;29;20037;-65
2023/04/08 10:33:28;;;;;;;31.75;22.02;;;22.70;58.50;;;;;;4878261;29;20366;-65
2023/04/08 10:36:14;;;;;;;33.13;22.13;;;22.70;58.20;;;;;;4869690;29;20057;-65
2023/04/08 10:38:43;;;;;;;33.83;22.33;;;22.80;58.00;;;;;;4876883;29;20036;-63
2023/04/08 10:41:12;;;;;;;36.80;25.20;;;22.90;58.00;;;;;;4878166;29;20041;-65
2023/04/08 10:43:39;;;;;;;36.67;26.17;;;22.90;57.90;;;;;;4876782;29;20144;-65
2023/04/08 10:46:05;;;;;;;37.60;27.10;;;22.90;58.00;;;;;;4878077;29;20438;-64
2023/04/08 10:48:31;;;;;;;38.28;26.88;;;22.80;58.20;;;;;;4877824;29;20040;-65
2023/04/08 10:51:00;;;;;;;38.13;30.58;;;22.80;58.20;;;;;;4856671;29;20461;-64
2023/04/08 10:53:33;;;;;;;34.90;25.05;;;22.70;58.10;;;;;;4856992;29;20093;-65
2023/04/08 10:56:11;;;;;;;30.90;22.30;;;23.00;58.30;;;;;;4856879;29;20049;-64
2023/04/08 10:58:57;;;;;;;31.63;25.33;;;23.30;65.50;;;;;;4856818;29;20049;-64
2023/04/08 11:01:24;;;;;;;30.17;21.95;;;23.60;60.70;;;;;;4856883;29;20061;-65
2023/04/08 11:03:50;;;;;;;40.17;27.15;;;23.70;60.00;;;;;;4856709;29;20045;-65
2023/04/08 11:06:17;;;;;;;33.92;24.80;;;23.60;47.80;;;;;;4857015;29;20432;-65
2023/04/08 11:08:46;;;;;;;38.58;26.40;;;23.50;47.90;;;;;;4856623;29;20502;-65
2023/04/08 11:11:12;;;;;;;37.40;28.40;;;23.50;51.90;;;;;;4841661;29;20053;-66
2023/04/08 11:13:42;;;;;;;40.42;27.88;;;23.40;56.10;;;;;;4856594;29;20098;-64
2023/04/08 11:16:08;;;;;;;38.30;27.05;;;23.40;57.00;;;;;;4856625;29;20056;-65
2023/04/08 11:18:37;;;;;;;37.33;27.55;;;23.50;56.80;;;;;;4856439;29;20072;-65
2023/04/08 11:21:07;;;;;;;39.78;29.48;;;23.50;63.70;;;;;;4859040;29;20057;-63
2023/04/08 11:23:34;;;;;;;37.38;27.58;;;23.80;67.60;;;;;;4877224;29;20120;-66
2023/04/08 11:26:01;;;;;;;39.58;27.95;;;24.20;69.60;;;;;;4877748;29;20060;-66
2023/04/08 11:28:28;;;;;;;39.42;29.35;;;24.50;71.00;;;;;;4877625;29;20037;-66
2023/04/08 11:30:54;;;;;;;41.28;29.30;;;24.50;69.00;;;;;;4891841;29;20041;-66
2023/04/08 11:33:21;;;;;;;38.33;28.00;;;24.50;62.40;;;;;;4876941;29;20068;-67
2023/04/08 11:35:51;;;;;;;40.85;27.98;;;24.30;60.20;;;;;;4876794;29;20064;-66
2023/04/08 11:38:22;;;;;;;42.40;29.75;;;24.00;59.00;;;;;;4877363;29;20549;-66
2023/04/08 11:40:57;;;;;;;44.15;28.13;;;24.10;58.70;;;;;;4877115;29;20076;-65
2023/04/08 11:43:25;;;;;;;41.88;28.25;;;23.90;58.40;;;;;;4877414;29;20714;-66
2023/04/08 11:45:51;;;;;;;40.50;28.98;;;23.70;58.40;;;;;;4860413;29;20029;-65
2023/04/08 11:48:17;;;;;;;41.10;29.17;;;23.80;58.10;;;;;;4879489;29;20032;-66
2023/04/08 11:50:44;;;;;;;42.38;27.98;;;23.70;58.90;;;;;;4880285;29;20061;-66
2023/04/08 11:53:24;;;;;;;33.38;25.10;;;23.90;60.50;;;;;;4878003;29;20033;-67
2023/04/08 11:55:50;;;;;;;33.05;22.35;;;24.10;61.10;;;;;;4881111;29;20052;-65
2023/04/08 11:58:16;;;;;;;37.78;25.40;;;24.30;65.40;;;;;;4877961;29;20029;-66
2023/04/08 12:00:44;;;;;;;37.00;24.38;;;24.60;66.90;;;;;;4880081;29;20041;-65
2023/04/08 12:03:12;;;;;;;36.20;26.42;;;24.70;67.70;;;;;;4879502;29;20053;-64
2023/04/08 12:05:38;;;;;;;36.50;25.63;;;24.80;61.10;;;;;;4879469;29;20036;-66
2023/04/08 12:08:04;;;;;;;40.72;27.90;;;24.60;58.80;;;;;;4879450;29;20070;-65
2023/04/08 12:10:30;;;;;;;38.97;25.95;;;24.50;59.40;;;;;;4862873;29;20037;-66
2023/04/08 12:12:56;;;;;;;38.10;27.08;;;24.40;59.10;;;;;;4879104;29;20405;-66
2023/04/08 12:15:22;;;;;;;38.30;24.30;;;24.20;58.90;;;;;;4880789;29;20044;-66
2023/04/08 12:17:48;;;;;;;38.05;25.75;;;24.10;59.00;;;;;;4880118;29;20753;-65
2023/04/08 12:20:16;;;;;;;42.47;27.33;;;24.20;58.90;;;;;;4880318;29;20049;-66
2023/04/08 12:22:42;;;;;;;41.88;28.67;;;24.20;58.90;;;;;;4880759;29;20132;-66
2023/04/08 12:25:08;;;;;;;41.15;26.70;;;24.00;58.80;;;;;;4880398;29;20189;-66
2023/04/08 12:27:34;;;;;;;38.42;25.75;;;24.00;59.00;;;;;;4879288;29;20025;-67
2023/04/08 12:30:01;;;;;;;39.78;26.45;;;23.90;59.10;;;;;;4879222;29;20120;-67
2023/04/08 12:32:27;;;;;;;40.28;26.48;;;24.00;59.20;;;;;;4878475;29;20056;-66